createdAt,value
2023-02-06T00:00:53.616Z,103585.47
2023-02-06T00:03:20.807Z,103581.97
2023-02-06T00:05:59.501Z,103589.91
2023-02-06T00:08:28.030Z,103582.88
2023-02-06T00:10:55.569Z,103575.81
2023-02-06T00:13:22.895Z,103574.94
2023-02-06T00:15:49.896Z,103584.66
2023-02-06T00:18:16.855Z,103582.03
2023-02-06T00:20:43.746Z,103582.94
2023-02-06T00:23:10.686Z,103582.97
2023-02-06T00:25:37.661Z,103573.25
2023-02-06T00:28:05.239Z,103574.16
2023-02-06T00:30:32.162Z,103575.94
2023-02-06T00:32:59.199Z,103571.53
2023-02-06T00:35:26.244Z,103573.34
2023-02-06T00:37:53.204Z,103580.41
2023-02-06T00:40:20.162Z,103574.25
2023-02-06T00:42:47.077Z,103571.59
2023-02-06T00:45:14.088Z,103570.72
2023-02-06T00:47:40.931Z,103565.47
2023-02-06T00:50:08.152Z,103565.47
2023-02-06T00:52:35.126Z,103560.19
2023-02-06T00:55:01.971Z,103556.66
2023-02-06T00:57:29.208Z,103557.59
2023-02-06T00:59:56.019Z,103553.19
2023-02-06T01:02:22.945Z,103559.38
2023-02-06T01:04:49.798Z,103549.69
2023-02-06T01:07:16.704Z,103544.38
2023-02-06T01:09:43.529Z,103534.72
2023-02-06T01:12:10.387Z,103534.72
2023-02-06T01:14:37.561Z,103537.38
2023-02-06T01:17:05.249Z,103547.97
2023-02-06T01:19:34.176Z,103535.63
2023-02-06T01:22:01.137Z,103537.38
2023-02-06T01:24:28.092Z,103537.41
2023-02-06T01:26:55.000Z,103538.28
2023-02-06T01:29:21.923Z,103520.66
2023-02-06T01:31:48.841Z,103517.16
2023-02-06T01:34:15.821Z,103505.69
2023-02-06T01:36:42.669Z,103501.31
2023-02-06T01:39:10.474Z,103496.03
2023-02-06T01:41:37.310Z,103489.88
2023-02-06T01:44:13.672Z,103483.72
2023-02-06T01:46:42.491Z,103487.22
2023-02-06T01:49:15.327Z,103497.81
2023-02-06T01:51:42.604Z,103504.88
2023-02-06T01:54:10.477Z,103515.44
2023-02-06T01:56:43.971Z,103517.19
2023-02-06T01:59:12.098Z,103525.13
2023-02-06T02:01:38.960Z,103520.72
2023-02-06T02:04:08.691Z,103519.84
2023-02-06T02:06:35.847Z,103519.00
2023-02-06T02:09:04.744Z,103515.47
2023-02-06T02:11:37.843Z,103518.97
2023-02-06T02:14:08.813Z,103511.94
2023-02-06T02:17:00.181Z,103523.38
2023-02-06T02:19:26.837Z,103524.28
2023-02-06T02:22:15.412Z,103534.84
2023-02-06T02:24:48.006Z,103533.06
2023-02-06T02:27:45.161Z,103531.34
2023-02-06T02:30:26.088Z,103546.31
2023-02-06T02:33:18.192Z,103553.34
2023-02-06T02:35:44.969Z,103541.91
2023-02-06T02:38:45.647Z,103544.56
2023-02-06T02:41:28.090Z,103544.56
2023-02-06T02:44:30.400Z,103550.72
2023-02-06T02:47:02.104Z,103543.66
2023-02-06T02:49:32.463Z,103533.97
2023-02-06T02:52:00.132Z,103529.59
2023-02-06T02:54:27.083Z,103519.91
2023-02-06T02:56:58.521Z,103512.84
2023-02-06T02:59:32.730Z,103512.84
2023-02-06T03:02:15.384Z,103512.84
2023-02-06T03:04:51.522Z,103511.09
2023-02-06T03:07:27.573Z,103523.44
2023-02-06T03:10:19.107Z,103525.19
2023-02-06T03:12:54.359Z,103503.16
2023-02-06T03:15:31.186Z,103497.00
2023-02-06T03:18:06.986Z,103479.38
2023-02-06T03:20:37.167Z,103476.72
2023-02-06T03:23:07.126Z,103468.81
2023-02-06T03:25:39.161Z,103466.16
2023-02-06T03:28:13.503Z,103469.69
2023-02-06T03:30:42.886Z,103458.22
2023-02-06T03:33:13.796Z,103463.53
2023-02-06T03:35:40.792Z,103462.66
2023-02-06T03:38:09.506Z,103466.16
2023-02-06T03:40:37.798Z,103460.88
2023-02-06T03:43:05.955Z,103458.22
2023-02-06T03:45:42.687Z,103460.00
2023-02-06T03:48:17.577Z,103445.94
2023-02-06T03:50:48.304Z,103452.97
2023-02-06T03:53:17.218Z,103447.66
2023-02-06T03:55:47.527Z,103449.44
2023-02-06T03:58:15.053Z,103460.03
2023-02-06T04:00:44.833Z,103458.22
2023-02-06T04:03:13.312Z,103454.72
2023-02-06T04:05:41.300Z,103449.44
2023-02-06T04:08:08.156Z,103445.94
2023-02-06T04:10:35.034Z,103442.38
2023-02-06T04:13:02.010Z,103445.03
2023-02-06T04:15:28.982Z,103438.84
2023-02-06T04:18:01.248Z,103447.66
2023-02-06T04:20:29.738Z,103442.38
2023-02-06T04:22:57.327Z,103431.84
2023-02-06T04:25:24.239Z,103437.09
2023-02-06T04:27:51.246Z,103443.25
2023-02-06T04:30:18.572Z,103434.47
2023-02-06T04:32:45.574Z,103433.59
2023-02-06T04:35:12.464Z,103434.44
2023-02-06T04:37:39.414Z,103439.75
2023-02-06T04:40:06.900Z,103422.16
2023-02-06T04:42:33.719Z,103430.06
2023-02-06T04:45:00.552Z,103422.13
2023-02-06T04:47:27.650Z,103428.31
2023-02-06T04:49:54.478Z,103430.09
2023-02-06T04:52:21.299Z,103429.19
2023-02-06T04:54:48.147Z,103432.72
2023-02-06T04:57:14.963Z,103427.44
2023-02-06T04:59:41.754Z,103422.16
2023-02-06T05:02:08.575Z,103419.50
2023-02-06T05:04:35.366Z,103423.03
2023-02-06T05:07:03.959Z,103430.06
2023-02-06T05:09:32.338Z,103416.00
2023-02-06T05:11:59.534Z,103417.75
2023-02-06T05:14:26.457Z,103419.53
2023-02-06T05:16:53.246Z,103417.78
2023-02-06T05:19:20.080Z,103425.66
2023-02-06T05:21:47.110Z,103424.78
2023-02-06T05:24:13.984Z,103417.75
2023-02-06T05:26:40.814Z,103412.47
2023-02-06T05:29:07.948Z,103400.16
2023-02-06T05:31:36.121Z,103401.00
2023-02-06T05:34:02.998Z,103395.75
2023-02-06T05:36:29.959Z,103396.63
2023-02-06T05:38:57.490Z,103393.09
2023-02-06T05:41:24.465Z,103393.97
2023-02-06T05:43:51.321Z,103395.69
2023-02-06T05:46:19.684Z,103391.28
2023-02-06T05:48:46.685Z,103391.25
2023-02-06T05:51:13.556Z,103383.31
2023-02-06T05:53:40.401Z,103385.06
2023-02-06T05:56:07.429Z,103382.38
2023-02-06T05:58:34.745Z,103389.44
2023-02-06T06:01:01.597Z,103390.31
2023-02-06T06:03:28.443Z,103397.34
2023-02-06T06:05:55.941Z,103392.94
2023-02-06T06:08:23.431Z,103394.66
2023-02-06T06:10:52.279Z,103400.84
2023-02-06T06:13:19.330Z,103385.03
2023-02-06T06:15:46.312Z,103392.03
2023-02-06T06:18:13.233Z,103393.81
2023-02-06T06:20:40.057Z,103391.09
2023-02-06T06:23:06.894Z,103384.91
2023-02-06T06:25:35.502Z,103377.00
2023-02-06T06:28:03.285Z,103382.28
2023-02-06T06:30:30.629Z,103383.16
2023-02-06T06:32:57.629Z,103379.63
2023-02-06T06:35:26.261Z,103384.06
2023-02-06T06:37:53.094Z,103366.47
2023-02-06T06:40:20.153Z,103374.38
2023-02-06T06:42:47.044Z,103374.44
2023-02-06T06:45:14.101Z,103377.91
2023-02-06T06:47:41.237Z,103366.50
2023-02-06T06:50:08.821Z,103362.06
2023-02-06T06:52:35.746Z,103348.84
2023-02-06T06:55:02.728Z,103350.56
2023-02-06T06:57:33.068Z,103362.03
2023-02-06T07:00:00.056Z,103365.56
2023-02-06T07:02:28.840Z,103365.56
2023-02-06T07:04:55.990Z,103356.75
2023-02-06T07:07:23.142Z,103367.31
2023-02-06T07:09:50.229Z,103360.28
2023-02-06T07:12:17.231Z,103348.81
2023-02-06T07:14:44.238Z,103340.00
2023-02-06T07:17:11.261Z,103351.47
2023-02-06T07:19:38.236Z,103347.06
2023-02-06T07:22:05.518Z,103347.03
2023-02-06T07:24:32.435Z,103360.34
2023-02-06T07:26:59.479Z,103356.13
2023-02-06T07:29:26.452Z,103363.28
2023-02-06T07:31:53.442Z,103363.31
2023-02-06T07:34:20.478Z,103368.53
2023-02-06T07:36:47.657Z,103364.91
2023-02-06T07:39:14.651Z,103359.59
2023-02-06T07:41:41.701Z,103364.00
2023-02-06T07:44:11.222Z,103358.69
2023-02-06T07:46:38.149Z,103366.59
2023-02-06T07:49:05.209Z,103361.28
2023-02-06T07:51:32.609Z,103363.03
2023-02-06T07:53:59.538Z,103358.63
2023-02-06T07:56:26.620Z,103353.31
2023-02-06T07:58:55.296Z,103351.53
2023-02-06T08:01:23.396Z,103355.94
2023-02-06T08:03:51.546Z,103351.53
2023-02-06T08:06:19.375Z,103350.63
2023-02-06T08:08:46.966Z,103349.75
2023-02-06T08:11:17.316Z,103347.13
2023-02-06T08:13:44.817Z,103340.03
2023-02-06T08:16:18.774Z,103333.88
2023-02-06T08:18:46.117Z,103329.50
2023-02-06T08:21:16.356Z,103330.31
2023-02-06T08:23:43.878Z,103330.31
2023-02-06T08:26:12.421Z,103319.75
2023-02-06T08:28:42.180Z,103318.00
2023-02-06T08:31:15.736Z,103310.94
2023-02-06T08:33:42.758Z,103306.53
2023-02-06T08:36:11.114Z,103313.56
2023-02-06T08:38:39.087Z,103307.41
2023-02-06T08:41:15.044Z,103304.69
2023-02-06T08:43:41.973Z,103300.28
2023-02-06T08:46:08.891Z,103300.28
2023-02-06T08:48:35.951Z,103305.63
2023-02-06T08:51:07.809Z,103298.53
2023-02-06T08:53:34.893Z,103298.47
2023-02-06T08:56:08.051Z,103302.94
2023-02-06T08:58:35.160Z,103299.47
2023-02-06T09:01:10.077Z,103302.06
2023-02-06T09:03:37.411Z,103299.38
2023-02-06T09:06:10.283Z,103304.59
2023-02-06T09:08:38.921Z,103306.34
2023-02-06T09:11:17.625Z,103320.41
2023-02-06T09:13:49.200Z,103318.63
2023-02-06T09:16:18.571Z,103325.69
2023-02-06T09:18:45.950Z,103313.31
2023-02-06T09:21:22.052Z,103328.31
2023-02-06T09:23:51.961Z,103329.16
2023-02-06T09:26:23.495Z,103320.28
2023-02-06T09:28:58.105Z,103329.13
2023-02-06T09:31:27.006Z,103328.25
2023-02-06T09:33:54.006Z,103322.91
2023-02-06T09:36:22.040Z,103320.28
2023-02-06T09:38:58.098Z,103325.56
2023-02-06T09:41:37.342Z,103321.16
2023-02-06T09:44:39.779Z,103317.59
2023-02-06T09:47:28.008Z,103323.78
2023-02-06T09:49:59.978Z,103322.91
2023-02-06T09:52:30.044Z,103313.25
2023-02-06T09:55:06.127Z,103316.75
2023-02-06T09:57:33.382Z,103307.94
2023-02-06T10:00:04.128Z,103309.66
2023-02-06T10:02:53.004Z,103308.78
2023-02-06T10:05:26.480Z,103307.94
2023-02-06T10:08:03.666Z,103302.69
2023-02-06T10:10:58.832Z,103301.75
2023-02-06T10:13:44.108Z,103300.84
2023-02-06T10:16:24.751Z,103296.41
2023-02-06T10:18:55.570Z,103293.72
2023-02-06T10:21:41.674Z,103295.44
2023-02-06T10:24:20.096Z,103285.75
2023-02-06T10:26:50.581Z,103286.63
2023-02-06T10:29:36.752Z,103285.75
2023-02-06T10:32:39.094Z,103273.41
2023-02-06T10:35:11.840Z,103264.59
2023-02-06T10:37:53.360Z,103262.84
2023-02-06T10:40:26.352Z,103256.66
2023-02-06T10:43:18.179Z,103253.09
2023-02-06T10:46:06.170Z,103246.03
2023-02-06T10:48:37.668Z,103240.78
2023-02-06T10:51:16.362Z,103237.22
2023-02-06T10:53:52.281Z,103241.66
2023-02-06T10:56:29.223Z,103240.81
2023-02-06T10:59:13.087Z,103246.13
2023-02-06T11:01:43.362Z,103239.06
2023-02-06T11:04:19.981Z,103248.78
2023-02-06T11:06:47.383Z,103247.06
2023-02-06T11:09:15.998Z,103249.72
2023-02-06T11:11:50.172Z,103248.88
2023-02-06T11:14:32.061Z,103249.78
2023-02-06T11:17:02.241Z,103248.03
2023-02-06T11:19:38.920Z,103239.25
2023-02-06T11:22:07.566Z,103234.00
2023-02-06T11:24:36.234Z,103226.94
2023-02-06T11:27:20.952Z,103228.75
2023-02-06T11:29:52.073Z,103223.47
2023-02-06T11:33:02.666Z,103219.97
2023-02-06T11:35:39.613Z,103208.50
2023-02-06T11:38:22.143Z,103212.91
2023-02-06T11:40:57.009Z,103216.47
2023-02-06T11:43:27.288Z,103214.75
2023-02-06T11:46:16.103Z,103209.50
2023-02-06T11:49:01.580Z,103202.47
2023-02-06T11:52:00.080Z,103205.13
2023-02-06T11:54:35.082Z,103196.31
2023-02-06T11:57:21.070Z,103191.94
2023-02-06T12:00:03.920Z,103188.41
2023-02-06T12:02:32.249Z,103190.19
2023-02-06T12:05:03.156Z,103181.34
2023-02-06T12:07:38.295Z,103176.06
2023-02-06T12:10:20.310Z,103168.97
2023-02-06T12:13:02.616Z,103169.84
2023-02-06T12:15:47.883Z,103166.28
2023-02-06T12:18:24.524Z,103171.56
2023-02-06T12:20:56.626Z,103166.25
2023-02-06T12:23:41.501Z,103161.84
2023-02-06T12:26:18.994Z,103159.19
2023-02-06T12:28:57.694Z,103160.03
2023-02-06T12:31:43.411Z,103158.31
2023-02-06T12:34:13.463Z,103152.94
2023-02-06T12:36:59.213Z,103152.91
2023-02-06T12:39:32.111Z,103141.44
2023-02-06T12:42:21.813Z,103140.59
2023-02-06T12:45:13.655Z,103140.59
2023-02-06T12:48:07.343Z,103137.94
2023-02-06T12:50:46.087Z,103135.31
2023-02-06T12:53:39.516Z,103135.28
2023-02-06T12:56:42.031Z,103122.94
2023-02-06T12:59:18.162Z,103121.19
2023-02-06T13:02:01.299Z,103114.09
2023-02-06T13:04:32.864Z,103112.31
2023-02-06T13:07:16.963Z,103111.41
2023-02-06T13:19:44.985Z,103098.84
2023-02-06T13:22:13.268Z,103097.91
2023-02-06T13:24:42.975Z,103097.91
2023-02-06T13:27:12.865Z,103094.34
2023-02-06T13:29:52.155Z,103082.88
2023-02-06T13:32:18.993Z,103082.28
2023-02-06T13:35:21.116Z,103076.19
2023-02-06T13:37:50.430Z,103068.06
2023-02-06T13:40:23.956Z,103071.41
2023-02-06T13:43:10.402Z,103068.66
2023-02-06T13:45:43.117Z,103060.63
2023-02-06T13:48:31.189Z,103056.13
2023-02-06T13:51:14.559Z,103060.41
2023-02-06T13:54:07.143Z,103044.47
2023-02-06T13:57:11.628Z,103042.50
2023-02-06T13:59:45.261Z,103044.19
2023-02-06T14:02:18.896Z,103039.59
2023-02-06T14:04:47.116Z,103036.84
2023-02-06T14:07:38.478Z,103032.38
2023-02-06T14:10:13.714Z,103024.31
2023-02-06T14:13:18.396Z,103008.31
2023-02-06T14:15:59.454Z,103004.69
2023-02-06T14:18:38.915Z,103002.84
2023-02-06T14:21:47.510Z,102995.66
2023-02-06T14:24:30.114Z,102992.03
2023-02-06T14:27:05.994Z,102993.78
2023-02-06T14:29:38.935Z,102988.41
2023-02-06T14:32:28.785Z,102983.94
2023-02-06T14:35:26.998Z,102989.13
2023-02-06T14:38:15.496Z,102983.78
2023-02-06T14:40:47.698Z,102979.34
2023-02-06T14:43:21.706Z,102980.13
2023-02-06T14:46:07.353Z,102978.41
2023-02-06T14:48:44.800Z,102977.47
2023-02-06T14:51:37.335Z,102972.97
2023-02-06T14:54:26.315Z,102967.13
2023-02-06T14:56:58.778Z,102970.25
2023-02-06T14:59:25.835Z,102970.34
2023-02-06T15:01:55.016Z,102969.66
2023-02-06T15:04:27.957Z,102963.63
2023-02-06T15:07:03.933Z,102953.94
2023-02-06T15:09:36.737Z,102948.53
2023-02-06T15:12:18.031Z,102950.13
2023-02-06T15:15:03.226Z,102946.56
2023-02-06T15:17:32.153Z,102937.66
2023-02-06T15:20:21.460Z,102942.00
2023-02-06T15:22:48.584Z,102930.47
2023-02-06T15:25:44.720Z,102926.84
2023-02-06T15:28:21.087Z,102925.09
2023-02-06T15:30:54.624Z,102917.84
2023-02-06T15:33:29.001Z,102914.25
2023-02-06T15:35:58.845Z,102908.00
2023-02-06T15:38:28.318Z,102905.22
2023-02-06T15:40:59.502Z,102902.50
2023-02-06T15:43:27.912Z,102910.41
2023-02-06T15:46:01.647Z,102906.88
2023-02-06T15:48:43.635Z,102912.88
2023-02-06T15:51:24.714Z,102918.06
2023-02-06T15:54:05.873Z,102926.03
2023-02-06T15:56:37.748Z,102925.91
2023-02-06T15:59:08.074Z,102931.09
2023-02-06T16:01:40.461Z,102922.22
2023-02-06T16:04:22.470Z,102924.06
2023-02-06T16:07:19.873Z,102911.69
2023-02-06T16:10:12.858Z,102918.75
2023-02-06T16:12:42.375Z,102914.28
2023-02-06T16:15:30.703Z,102910.81
2023-02-06T16:18:00.349Z,102905.56
2023-02-06T16:20:37.458Z,102898.44
2023-02-06T16:23:26.433Z,102901.06
2023-02-06T16:26:24.397Z,102902.78
2023-02-06T16:29:03.843Z,102905.50
2023-02-06T16:31:35.070Z,102901.97
2023-02-06T16:34:05.445Z,102897.41
2023-02-06T16:36:33.914Z,102901.69
2023-02-06T16:39:04.511Z,102899.03
2023-02-06T16:41:41.754Z,102896.16
2023-02-06T16:44:13.738Z,102904.06
2023-02-06T16:46:41.262Z,102893.44
2023-02-06T16:49:14.733Z,102897.72
2023-02-06T16:51:43.471Z,102902.00
2023-02-06T16:54:27.747Z,102905.47
2023-02-06T16:56:57.720Z,102904.47
2023-02-06T16:59:24.737Z,102899.97
2023-02-06T17:01:51.748Z,102900.84
2023-02-06T17:04:18.874Z,102906.91
2023-02-06T17:06:45.894Z,102912.13
2023-02-06T17:09:17.725Z,102905.03
2023-02-06T17:11:45.327Z,102896.00
2023-02-06T17:14:12.372Z,102904.81
2023-02-06T17:16:39.532Z,102896.84
2023-02-06T17:19:06.495Z,102891.56
2023-02-06T17:21:33.708Z,102886.19
2023-02-06T17:24:00.992Z,102892.28
2023-02-06T17:26:28.094Z,102892.28
2023-02-06T17:28:55.170Z,102895.81
2023-02-06T17:31:22.561Z,102892.22
2023-02-06T17:33:50.204Z,102892.22
2023-02-06T17:36:22.990Z,102892.22
2023-02-06T17:38:50.083Z,102897.44
2023-02-06T17:41:17.037Z,102907.84
2023-02-06T17:43:44.762Z,102910.41
2023-02-06T17:46:13.451Z,102914.81
2023-02-06T17:48:42.939Z,102923.53
2023-02-06T17:51:10.745Z,102915.56
2023-02-06T17:53:37.913Z,102917.25
2023-02-06T17:56:12.283Z,102919.84
2023-02-06T17:58:40.959Z,102933.13
2023-02-06T18:01:23.736Z,102924.25
2023-02-06T18:03:50.980Z,102924.19
2023-02-06T18:06:18.970Z,102920.72
2023-02-06T18:08:46.818Z,102932.22
2023-02-06T18:11:22.085Z,102929.50
2023-02-06T18:13:50.318Z,102927.78
2023-02-06T18:16:21.326Z,102936.66
2023-02-06T18:18:48.715Z,102931.41
2023-02-06T18:21:19.530Z,102941.16
2023-02-06T18:23:47.752Z,102932.22
2023-02-06T18:26:15.181Z,102939.41
2023-02-06T18:28:42.155Z,102927.09
2023-02-06T18:31:39.298Z,102935.97
2023-02-06T18:34:08.381Z,102930.69
2023-02-06T18:36:39.073Z,102914.81
2023-02-06T18:39:06.964Z,102916.53
2023-02-06T18:41:52.867Z,102925.44
2023-02-06T18:44:19.944Z,102909.53
2023-02-06T18:46:48.159Z,102905.94
2023-02-06T18:49:15.738Z,102899.00
2023-02-06T18:51:43.697Z,102900.84
2023-02-06T18:54:11.369Z,102899.06
2023-02-06T18:56:40.318Z,102902.63
2023-02-06T18:59:07.380Z,102893.75
2023-02-06T19:01:35.099Z,102901.81
2023-02-06T19:04:03.091Z,102905.47
2023-02-06T19:06:35.581Z,102900.19
2023-02-06T19:09:07.352Z,102895.84
2023-02-06T19:11:36.213Z,102906.38
2023-02-06T19:14:06.195Z,102891.34
2023-02-06T19:16:34.733Z,102895.06
2023-02-06T19:19:02.428Z,102897.59
2023-02-06T19:21:30.411Z,102892.22
2023-02-06T19:24:00.660Z,102903.63
2023-02-06T19:26:29.257Z,102893.09
2023-02-06T19:28:57.765Z,102895.69
2023-02-06T19:31:25.621Z,102892.13
2023-02-06T19:33:55.336Z,102892.13
2023-02-06T19:36:28.564Z,102898.25
2023-02-06T19:39:00.295Z,102890.28
2023-02-06T19:41:31.301Z,102881.44
2023-02-06T19:44:02.005Z,102881.50
2023-02-06T19:46:29.663Z,102869.16
2023-02-06T19:48:57.009Z,102870.09
2023-02-06T19:51:30.565Z,102872.78
2023-02-06T19:53:59.373Z,102874.44
2023-02-06T19:56:32.027Z,102869.97
2023-02-06T19:59:05.382Z,102864.56
2023-02-06T20:01:33.236Z,102849.56
2023-02-06T20:04:02.806Z,102847.66
2023-02-06T20:06:35.251Z,102854.69
2023-02-06T20:09:04.826Z,102854.53
2023-02-06T20:11:34.475Z,102848.44
2023-02-06T20:14:02.333Z,102848.41
2023-02-06T20:16:33.467Z,102851.06
2023-02-06T20:19:06.481Z,102848.34
2023-02-06T20:21:39.710Z,102842.13
2023-02-06T20:24:09.432Z,102843.75
2023-02-06T20:26:40.150Z,102842.88
2023-02-06T20:29:09.774Z,102838.50
2023-02-06T20:31:37.507Z,102836.72
2023-02-06T20:34:06.968Z,102828.66
2023-02-06T20:36:34.409Z,102839.31
2023-02-06T20:39:01.727Z,102835.94
2023-02-06T20:41:31.941Z,102839.41
2023-02-06T20:44:02.677Z,102827.97
2023-02-06T20:46:33.531Z,102827.97
2023-02-06T20:49:05.097Z,102840.44
2023-02-06T20:51:34.891Z,102838.69
2023-02-06T20:54:02.287Z,102831.69
2023-02-06T20:56:29.873Z,102832.59
2023-02-06T20:58:58.817Z,102825.59
2023-02-06T21:01:28.576Z,102836.25
2023-02-06T21:04:01.407Z,102837.16
2023-02-06T21:06:32.215Z,102843.41
2023-02-06T21:09:02.204Z,102838.19
2023-02-06T21:11:33.407Z,102830.25
2023-02-06T21:14:05.670Z,102833.84
2023-02-06T21:16:35.297Z,102836.50
2023-02-06T21:19:05.231Z,102833.91
2023-02-06T21:21:34.566Z,102840.13
2023-02-06T21:24:04.167Z,102849.88
2023-02-06T21:26:32.571Z,102851.69
2023-02-06T21:29:04.661Z,102857.06
2023-02-06T21:31:38.393Z,102856.19
2023-02-06T21:34:16.564Z,102854.41
2023-02-06T21:36:44.543Z,102851.78
2023-02-06T21:39:17.733Z,102849.13
2023-02-06T21:41:47.799Z,102847.41
2023-02-06T21:44:18.401Z,102850.91
2023-02-06T21:46:45.945Z,102858.91
2023-02-06T21:49:16.674Z,102859.81
2023-02-06T21:51:46.555Z,102862.53
2023-02-06T21:54:14.088Z,102863.50
2023-02-06T21:56:41.403Z,102859.94
2023-02-06T21:59:10.929Z,102859.13
2023-02-06T22:01:41.116Z,102867.97
2023-02-06T22:04:11.898Z,102864.47
2023-02-06T22:06:39.745Z,102856.63
2023-02-06T22:09:09.098Z,102858.41
2023-02-06T22:11:38.862Z,102854.00
2023-02-06T22:14:10.466Z,102856.72
2023-02-06T22:16:38.139Z,102857.75
2023-02-06T22:19:06.313Z,102861.38
2023-02-06T22:21:35.045Z,102861.63
2023-02-06T22:24:05.847Z,102860.13
2023-02-06T22:26:36.988Z,102863.84
2023-02-06T22:29:04.877Z,102856.03
2023-02-06T22:31:33.556Z,102858.03
2023-02-06T22:34:01.493Z,102856.34
2023-02-06T22:36:31.841Z,102852.88
2023-02-06T22:39:02.764Z,102847.75
2023-02-06T22:41:30.874Z,102843.41
2023-02-06T22:43:58.680Z,102845.28
2023-02-06T22:46:32.297Z,102848.91
2023-02-06T22:48:59.965Z,102851.69
2023-02-06T22:51:27.787Z,102850.00
2023-02-06T22:53:55.449Z,102858.00
2023-02-06T22:56:29.889Z,102858.97
2023-02-06T22:59:19.745Z,102852.00
2023-02-06T23:01:48.302Z,102860.03
2023-02-06T23:04:18.658Z,102862.75
2023-02-06T23:06:46.209Z,102857.50
2023-02-06T23:09:17.481Z,102860.22
2023-02-06T23:11:45.356Z,102851.53
2023-02-06T23:14:14.146Z,102855.16
2023-02-06T23:16:41.397Z,102865.75
2023-02-06T23:19:09.368Z,102865.81
2023-02-06T23:21:38.939Z,102861.47
2023-02-06T23:24:08.019Z,102860.66
2023-02-06T23:26:35.618Z,102853.69
2023-02-06T23:29:06.610Z,102858.09
2023-02-06T23:31:33.733Z,102853.75
2023-02-06T23:34:01.037Z,102852.94
2023-02-06T23:36:28.946Z,102852.06
2023-02-06T23:38:56.267Z,102853.94
2023-02-06T23:41:28.293Z,102844.22
2023-02-06T23:44:01.602Z,102850.47
2023-02-06T23:46:30.952Z,102858.50
2023-02-06T23:48:57.975Z,102850.56
2023-02-06T23:51:25.108Z,102849.81
2023-02-06T23:53:52.610Z,102856.03
2023-02-06T23:56:28.396Z,102859.56
2023-02-06T23:58:57.221Z,102862.28
